Time;durP1;ratioP1;P1;durP2;ratioP2;P2;SDS_P1;SDS_P2;PMS_P1;PMS_P2;Temp;Humidity;BMP_temperature;BMP_pressure;BME280_temperature;BME280_humidity;BME280_pressure;Samples;Min_cycle;Max_cycle;Signal;HPM_P1;HPM_P2
2022/12/21 00:01:09;;;;;;;38.30;17.27;;;;;;;;;;4994234;28;21300;-72
2022/12/21 00:03:36;;;;;;;37.47;19.83;;;;;;;;;;4994286;28;21026;-72
2022/12/21 00:06:04;;;;;;;31.90;15.37;;;;;;;;;;5003903;28;20434;-72
2022/12/21 00:08:35;;;;;;;41.80;22.03;;;;;;;;;;4993462;28;20821;-72
2022/12/21 00:11:01;;;;;;;37.00;16.97;;;;;;;;;;4992283;28;20454;-72
2022/12/21 00:13:29;;;;;;;46.13;21.50;;;;;;;;;;5009972;28;20447;-72
2022/12/21 00:15:57;;;;;;;39.83;20.10;;;;;;;;;;5009763;28;20487;-72
2022/12/21 00:18:24;;;;;;;39.57;19.27;;;;;;;;;;5010738;28;20478;-72
2022/12/21 00:20:57;;;;;;;29.97;13.80;;;;;;;;;;4993130;28;20818;-71
2022/12/21 00:23:24;;;;;;;38.67;18.40;;;;;;;;;;4993767;28;20443;-71
2022/12/21 00:25:51;;;;;;;32.50;15.30;;;;;;;;;;4973640;28;20447;-71
2022/12/21 00:28:18;;;;;;;38.33;17.57;;;;;;;;;;5008622;28;20976;-72
2022/12/21 00:30:44;;;;;;;40.87;19.53;;;;;;;;;;5010147;28;21115;-72
2022/12/21 00:33:11;;;;;;;43.30;19.97;;;;;;;;;;4976578;28;20459;-72
2022/12/21 00:35:38;;;;;;;32.00;14.90;;;;;;;;;;4992373;28;20958;-72
2022/12/21 00:38:05;;;;;;;36.77;17.10;;;;;;;;;;5008595;28;20552;-72
2022/12/21 00:40:32;;;;;;;41.60;18.73;;;;;;;;;;5011011;28;20459;-72
2022/12/21 00:42:59;;;;;;;40.40;19.70;;;;;;;;;;5007874;28;20450;-72
2022/12/21 00:45:26;;;;;;;46.63;20.73;;;;;;;;;;4993305;28;20565;-72
2022/12/21 00:48:10;;;;;;;38.77;18.60;;;;;;;;;;4994655;28;20446;-72
2022/12/21 00:50:37;;;;;;;36.17;15.20;;;;;;;;;;5008171;28;20541;-72
2022/12/21 00:53:03;;;;;;;31.17;14.37;;;;;;;;;;4997007;28;20829;-72
2022/12/21 00:55:30;;;;;;;37.13;17.60;;;;;;;;;;5009615;28;20537;-71
2022/12/21 00:57:57;;;;;;;35.90;16.93;;;;;;;;;;5011159;28;20471;-72
2022/12/21 01:00:24;;;;;;;39.70;20.27;;;;;;;;;;5008494;28;20526;-72
2022/12/21 01:02:51;;;;;;;38.50;18.80;;;;;;;;;;5010002;28;20451;-72
2022/12/21 01:05:18;;;;;;;40.03;20.30;;;;;;;;;;4988718;28;20452;-72
2022/12/21 01:07:45;;;;;;;38.83;18.50;;;;;;;;;;4988234;28;20460;-72
2022/12/21 01:10:12;;;;;;;40.13;19.00;;;;;;;;;;4991502;28;20446;-72
2022/12/21 01:12:39;;;;;;;41.60;20.70;;;;;;;;;;4992116;28;20534;-72
2022/12/21 01:15:06;;;;;;;28.43;14.40;;;;;;;;;;5010062;28;20451;-72
2022/12/21 01:17:33;;;;;;;39.90;19.13;;;;;;;;;;5008875;28;21045;-72
2022/12/21 01:20:01;;;;;;;39.80;15.47;;;;;;;;;;4992746;28;20458;-72
2022/12/21 01:22:37;;;;;;;41.30;18.00;;;;;;;;;;4986734;28;20458;-72
2022/12/21 01:25:06;;;;;;;41.97;20.67;;;;;;;;;;4990930;28;20466;-72
2022/12/21 01:27:34;;;;;;;33.47;15.63;;;;;;;;;;4992567;28;20434;-72
2022/12/21 01:30:01;;;;;;;38.13;16.47;;;;;;;;;;5009434;28;20438;-72
2022/12/21 01:32:28;;;;;;;35.20;17.73;;;;;;;;;;4991591;28;20501;-72
2022/12/21 01:34:56;;;;;;;35.53;16.80;;;;;;;;;;4974624;28;20484;-72
2022/12/21 01:37:24;;;;;;;43.63;19.83;;;;;;;;;;5006042;28;20455;-71
2022/12/21 01:39:51;;;;;;;44.70;19.70;;;;;;;;;;4989924;28;20787;-71
2022/12/21 01:42:18;;;;;;;34.40;13.40;;;;;;;;;;4991879;28;20465;-71
2022/12/21 01:44:48;;;;;;;50.37;22.33;;;;;;;;;;5008911;28;20490;-71
2022/12/21 01:47:17;;;;;;;48.03;22.77;;;;;;;;;;5007026;28;20466;-72
2022/12/21 01:49:44;;;;;;;49.33;23.53;;;;;;;;;;5007392;28;20907;-72
2022/12/21 01:52:11;;;;;;;41.90;19.90;;;;;;;;;;4991761;28;20475;-72
2022/12/21 01:54:59;;;;;;;50.00;21.73;;;;;;;;;;4987109;28;20991;-72
2022/12/21 01:57:26;;;;;;;43.20;17.50;;;;;;;;;;4992459;28;20557;-72
2022/12/21 01:59:54;;;;;;;41.93;18.57;;;;;;;;;;4975844;28;20453;-72
2022/12/21 02:02:31;;;;;;;47.03;20.83;;;;;;;;;;4991570;28;20550;-72
2022/12/21 02:05:00;;;;;;;46.30;19.67;;;;;;;;;;4991773;28;20454;-72
2022/12/21 02:07:27;;;;;;;49.23;21.90;;;;;;;;;;4990426;28;20446;-72
2022/12/21 02:09:55;;;;;;;44.80;22.33;;;;;;;;;;4989519;28;20451;-72
2022/12/21 02:12:24;;;;;;;54.27;23.10;;;;;;;;;;4991907;28;20451;-72
2022/12/21 02:14:54;;;;;;;54.20;24.33;;;;;;;;;;4990485;28;20515;-72
2022/12/21 02:17:21;;;;;;;57.07;22.67;;;;;;;;;;5009787;28;20445;-72
2022/12/21 02:20:07;;;;;;;50.77;22.23;;;;;;;;;;5008094;28;20978;-72
2022/12/21 02:22:44;;;;;;;54.47;24.50;;;;;;;;;;4989914;28;20577;-72
2022/12/21 02:25:12;;;;;;;58.83;26.00;;;;;;;;;;5008577;28;20877;-72
2022/12/21 02:27:54;;;;;;;55.37;25.10;;;;;;;;;;5007422;28;20455;-72
2022/12/21 02:30:21;;;;;;;50.47;20.50;;;;;;;;;;4977494;28;21346;-72
2022/12/21 02:32:52;;;;;;;44.67;18.00;;;;;;;;;;4988904;28;20448;-72
2022/12/21 02:35:20;;;;;;;54.87;25.10;;;;;;;;;;4990932;28;20459;-72
2022/12/21 02:37:51;;;;;;;52.73;24.80;;;;;;;;;;4983950;28;20483;-72
2022/12/21 02:40:20;;;;;;;50.30;21.87;;;;;;;;;;4983662;28;20455;-72
2022/12/21 02:45:54;;;;;;;38.43;17.70;;;;;;;;;;4988702;28;20800;-72
2022/12/21 02:48:34;;;;;;;51.40;23.97;;;;;;;;;;5009612;28;20431;-72
2022/12/21 02:51:02;;;;;;;42.87;19.90;;;;;;;;;;4991475;28;20517;-72
2022/12/21 02:53:34;;;;;;;48.77;22.30;;;;;;;;;;4977195;28;20563;-71
2022/12/21 02:56:01;;;;;;;36.07;16.60;;;;;;;;;;4991859;28;21119;-72
2022/12/21 02:58:27;;;;;;;34.53;15.23;;;;;;;;;;5008782;28;20511;-72
2022/12/21 03:01:01;;;;;;;39.07;16.57;;;;;;;;;;4989926;28;20803;-71
2022/12/21 03:03:50;;;;;;;46.77;21.33;;;;;;;;;;4972182;28;20478;-71
2022/12/21 03:06:38;;;;;;;47.37;22.77;;;;;;;;;;4991862;28;20465;-72
2022/12/21 03:09:05;;;;;;;53.43;23.07;;;;;;;;;;4989334;28;20462;-72
2022/12/21 03:11:50;;;;;;;39.83;18.93;;;;;;;;;;4989669;28;20459;-72
2022/12/21 03:14:41;;;;;;;34.43;16.27;;;;;;;;;;4990045;28;20459;-72
2022/12/21 03:17:28;;;;;;;46.13;21.53;;;;;;;;;;4948210;28;20819;-72
2022/12/21 03:20:01;;;;;;;42.23;21.03;;;;;;;;;;5000889;28;20482;-72
2022/12/21 03:22:31;;;;;;;44.43;20.83;;;;;;;;;;4975211;28;20460;-72
2022/12/21 03:25:08;;;;;;;43.93;20.90;;;;;;;;;;5008877;28;20458;-72
2022/12/21 03:27:40;;;;;;;38.10;15.87;;;;;;;;;;4977254;28;20987;-72
2022/12/21 03:30:09;;;;;;;39.80;19.10;;;;;;;;;;4994308;28;20981;-72
2022/12/21 03:32:37;;;;;;;56.08;28.52;;;;;;;;;;5009010;28;20934;-72
2022/12/21 03:35:05;;;;;;;52.93;24.87;;;;;;;;;;4989621;28;20192;-72
2022/12/21 03:37:33;;;;;;;52.90;25.70;;;;;;;;;;4994311;28;20450;-72
2022/12/21 03:40:10;;;;;;;32.37;14.67;;;;;;;;;;4994204;28;20482;-71
2022/12/21 03:42:40;;;;;;;29.93;13.93;;;;;;;;;;4992038;28;20512;-72
2022/12/21 03:45:30;;;;;;;41.30;19.90;;;;;;;;;;4977362;28;20490;-72
2022/12/21 03:48:08;;;;;;;52.13;23.00;;;;;;;;;;5002097;28;20917;-71
2022/12/21 03:50:39;;;;;;;25.30;11.13;;;;;;;;;;4992276;28;20839;-71
2022/12/21 03:53:06;;;;;;;57.87;24.43;;;;;;;;;;4996421;28;20477;-71
2022/12/21 03:55:33;;;;;;;43.60;18.17;;;;;;;;;;5010490;28;20470;-72
2022/12/21 03:58:00;;;;;;;53.10;21.60;;;;;;;;;;4975907;28;20986;-71
2022/12/21 04:00:26;;;;;;;56.90;21.73;;;;;;;;;;4977098;28;20470;-72
2022/12/21 04:02:55;;;;;;;47.13;17.20;;;;;;;;;;4991118;28;20455;-71
2022/12/21 04:05:24;;;;;;;63.33;25.73;;;;;;;;;;4988472;28;20518;-72
2022/12/21 04:07:50;;;;;;;28.17;11.20;;;;;;;;;;4993567;28;20501;-71
2022/12/21 04:10:18;;;;;;;59.17;21.80;;;;;;;;;;4992439;28;20955;-72
2022/12/21 04:12:46;;;;;;;42.87;17.70;;;;;;;;;;4990633;28;21290;-72
2022/12/21 04:15:20;;;;;;;61.00;25.23;;;;;;;;;;5010894;28;20552;-72
2022/12/21 04:17:48;;;;;;;50.13;19.03;;;;;;;;;;4991520;28;20966;-68
2022/12/21 04:20:16;;;;;;;61.27;22.90;;;;;;;;;;4975382;28;20451;-72
2022/12/21 04:28:24;;;;;;;68.70;25.80;;;;;;;;;;5009805;28;20545;-71
2022/12/21 04:31:10;;;;;;;50.07;18.97;;;;;;;;;;5009521;28;20442;-71
2022/12/21 04:33:38;;;;;;;66.10;24.97;;;;;;;;;;5008968;28;20458;-72
2022/12/21 04:38:50;;;;;;;64.93;26.30;;;;;;;;;;5010662;28;20498;-76
2022/12/21 04:41:17;;;;;;;68.57;26.93;;;;;;;;;;5011638;28;20418;-69
2022/12/21 04:43:43;;;;;;;54.57;22.03;;;;;;;;;;5011018;28;20485;-69
2022/12/21 04:46:11;;;;;;;76.00;26.03;;;;;;;;;;5010431;28;20453;-73
2022/12/21 04:48:38;;;;;;;67.17;27.93;;;;;;;;;;4993941;28;20418;-73
2022/12/21 04:51:06;;;;;;;61.10;22.50;;;;;;;;;;5009127;28;20477;-71
2022/12/21 04:53:33;;;;;;;69.80;24.60;;;;;;;;;;5004846;28;20472;-73
2022/12/21 04:55:59;;;;;;;74.70;27.77;;;;;;;;;;5031064;28;20450;-72
2022/12/21 04:58:26;;;;;;;71.53;24.67;;;;;;;;;;5025502;28;20539;-70
2022/12/21 05:00:53;;;;;;;89.63;28.50;;;;;;;;;;5011073;28;20431;-72
2022/12/21 05:03:19;;;;;;;55.77;18.17;;;;;;;;;;4993611;28;20431;-76
2022/12/21 05:05:46;;;;;;;62.27;20.57;;;;;;;;;;4977489;28;20423;-70
2022/12/21 05:08:13;;;;;;;56.50;20.53;;;;;;;;;;4975900;28;20476;-71
2022/12/21 05:10:51;;;;;;;71.87;24.97;;;;;;;;;;4972612;28;20522;-69
2022/12/21 05:13:18;;;;;;;47.50;18.40;;;;;;;;;;5005996;28;20458;-72
2022/12/21 05:15:45;;;;;;;79.47;29.93;;;;;;;;;;5004631;28;21321;-72
2022/12/21 05:18:12;;;;;;;76.13;25.23;;;;;;;;;;4989095;28;20463;-72
2022/12/21 05:20:39;;;;;;;79.00;27.50;;;;;;;;;;5007569;28;20449;-75
2022/12/21 05:23:06;;;;;;;70.60;24.53;;;;;;;;;;4992655;28;20469;-74
2022/12/21 05:25:32;;;;;;;90.57;31.70;;;;;;;;;;4987989;28;20968;-73
2022/12/21 05:27:59;;;;;;;73.57;27.40;;;;;;;;;;5003828;28;20497;-76
2022/12/21 05:30:26;;;;;;;56.97;19.43;;;;;;;;;;4990763;28;20521;-74
2022/12/21 05:32:53;;;;;;;88.30;30.20;;;;;;;;;;4989821;28;20498;-71
2022/12/21 05:35:20;;;;;;;69.03;23.80;;;;;;;;;;5006464;28;20412;-71
2022/12/21 05:37:46;;;;;;;82.70;30.27;;;;;;;;;;4984736;28;20457;-73
2022/12/21 05:40:14;;;;;;;52.50;21.97;;;;;;;;;;5009570;28;20475;-73
2022/12/21 05:42:41;;;;;;;84.07;25.97;;;;;;;;;;5007701;28;21165;-73
2022/12/21 05:45:08;;;;;;;67.70;21.47;;;;;;;;;;5009551;28;20807;-73
2022/12/21 05:47:34;;;;;;;78.50;29.17;;;;;;;;;;4990021;28;20471;-70
2022/12/21 05:50:01;;;;;;;80.00;30.20;;;;;;;;;;5009069;28;20481;-69
2022/12/21 05:52:29;;;;;;;71.03;24.77;;;;;;;;;;5005914;28;20521;-70
2022/12/21 05:54:58;;;;;;;68.67;24.93;;;;;;;;;;5009061;28;20534;-70
2022/12/21 05:57:26;;;;;;;88.40;31.83;;;;;;;;;;5006513;28;20459;-70
2022/12/21 05:59:53;;;;;;;50.83;21.37;;;;;;;;;;4991321;28;20526;-71
2022/12/21 06:02:20;;;;;;;54.40;19.37;;;;;;;;;;4990002;28;20473;-71
2022/12/21 06:04:47;;;;;;;90.20;29.77;;;;;;;;;;5006043;28;20466;-68
2022/12/21 06:07:14;;;;;;;110.63;34.20;;;;;;;;;;5005515;28;20526;-69
2022/12/21 06:09:41;;;;;;;97.67;30.77;;;;;;;;;;4986965;28;20455;-68
2022/12/21 06:12:07;;;;;;;96.10;31.77;;;;;;;;;;5006693;28;20454;-69
2022/12/21 06:14:36;;;;;;;107.90;33.43;;;;;;;;;;4997259;28;20482;-69
2022/12/21 06:17:04;;;;;;;88.73;29.97;;;;;;;;;;4986279;28;20457;-70
2022/12/21 06:19:31;;;;;;;89.60;31.10;;;;;;;;;;4989575;28;20467;-72
2022/12/21 06:21:58;;;;;;;82.87;25.90;;;;;;;;;;4988863;28;20450;-74
2022/12/21 06:24:24;;;;;;;75.17;22.23;;;;;;;;;;5002318;28;20447;-69
2022/12/21 06:26:51;;;;;;;95.43;30.30;;;;;;;;;;5004709;28;20509;-69
2022/12/21 06:29:18;;;;;;;62.93;21.27;;;;;;;;;;5005555;28;20461;-71
2022/12/21 06:31:46;;;;;;;88.17;28.47;;;;;;;;;;4992120;28;20561;-71
2022/12/21 06:34:14;;;;;;;63.80;21.67;;;;;;;;;;4992534;28;20429;-71
2022/12/21 06:36:40;;;;;;;89.30;27.63;;;;;;;;;;5009658;28;20441;-70
2022/12/21 06:39:07;;;;;;;90.73;27.33;;;;;;;;;;5009675;28;21002;-71
2022/12/21 06:41:34;;;;;;;52.50;18.90;;;;;;;;;;4991960;28;20470;-70
2022/12/21 06:44:00;;;;;;;85.33;26.03;;;;;;;;;;5009069;28;20442;-68
2022/12/21 06:46:27;;;;;;;98.73;32.27;;;;;;;;;;5003800;28;20526;-70
2022/12/21 06:48:55;;;;;;;91.83;27.83;;;;;;;;;;5006313;28;21005;-70
2022/12/21 06:51:22;;;;;;;97.03;30.80;;;;;;;;;;5012671;28;20511;-71
2022/12/21 06:53:50;;;;;;;104.87;33.60;;;;;;;;;;5017081;28;20624;-72
2022/12/21 06:56:19;;;;;;;87.10;30.33;;;;;;;;;;5010733;28;20458;-74
2022/12/21 06:58:48;;;;;;;82.40;25.53;;;;;;;;;;4977286;28;20930;-76
2022/12/21 07:01:18;;;;;;;106.43;32.27;;;;;;;;;;4992974;28;20427;-71
2022/12/21 07:03:46;;;;;;;86.30;26.37;;;;;;;;;;4992958;28;20540;-71
2022/12/21 07:06:14;;;;;;;80.50;25.50;;;;;;;;;;4992905;28;20470;-69
2022/12/21 07:08:40;;;;;;;82.70;29.03;;;;;;;;;;5009055;28;20469;-69
2022/12/21 07:11:08;;;;;;;81.63;26.10;;;;;;;;;;4991988;28;20522;-70
2022/12/21 07:13:39;;;;;;;96.83;31.83;;;;;;;;;;5009416;28;20438;-70
2022/12/21 07:16:06;;;;;;;76.90;27.87;;;;;;;;;;5005705;28;20439;-70
2022/12/21 07:18:34;;;;;;;80.17;28.17;;;;;;;;;;5003134;28;20478;-69
2022/12/21 07:21:02;;;;;;;94.97;33.60;;;;;;;;;;4992137;28;20453;-68
2022/12/21 07:23:29;;;;;;;78.97;30.13;;;;;;;;;;4991625;28;20462;-71
2022/12/21 07:25:57;;;;;;;52.13;20.33;;;;;;;;;;4992537;28;20431;-71
2022/12/21 07:28:32;;;;;;;66.07;23.90;;;;;;;;;;4977785;28;20985;-73
2022/12/21 07:31:03;;;;;;;74.57;28.47;;;;;;;;;;4995919;28;20437;-68
2022/12/21 07:33:30;;;;;;;47.13;18.53;;;;;;;;;;4992656;28;20470;-71
2022/12/21 07:35:58;;;;;;;75.00;28.80;;;;;;;;;;4992313;28;20463;-68
2022/12/21 07:38:30;;;;;;;54.20;22.10;;;;;;;;;;5008743;28;20446;-68
2022/12/21 07:40:57;;;;;;;75.87;28.23;;;;;;;;;;4991817;28;20478;-68
2022/12/21 07:43:24;;;;;;;67.10;24.97;;;;;;;;;;4991468;28;20445;-68
2022/12/21 07:46:10;;;;;;;58.70;20.60;;;;;;;;;;4993947;28;20496;-69
2022/12/21 07:48:37;;;;;;;69.37;28.40;;;;;;;;;;4991691;28;20847;-69
2022/12/21 07:51:04;;;;;;;39.33;15.93;;;;;;;;;;4992243;28;20418;-69
2022/12/21 07:53:31;;;;;;;48.73;16.90;;;;;;;;;;4999178;28;21040;-68
2022/12/21 07:56:01;;;;;;;44.87;17.00;;;;;;;;;;4985399;28;20455;-70
2022/12/21 07:58:28;;;;;;;63.53;25.90;;;;;;;;;;4987016;28;20526;-72
2022/12/21 08:00:55;;;;;;;53.23;24.37;;;;;;;;;;4989883;28;20477;-74
2022/12/21 08:03:31;;;;;;;30.17;15.23;;;;;;;;;;4971125;28;20483;-74
2022/12/21 08:05:58;;;;;;;41.43;18.70;;;;;;;;;;4989644;28;20463;-77
2022/12/21 08:08:25;;;;;;;46.40;20.90;;;;;;;;;;4996605;28;20443;-73
2022/12/21 08:10:52;;;;;;;49.30;20.63;;;;;;;;;;4987742;28;20501;-73
2022/12/21 08:13:20;;;;;;;48.70;23.10;;;;;;;;;;4988571;28;20483;-70
2022/12/21 08:15:48;;;;;;;44.67;18.07;;;;;;;;;;4986601;28;20435;-71
2022/12/21 08:18:15;;;;;;;39.67;15.13;;;;;;;;;;4989590;28;20440;-74
2022/12/21 08:20:45;;;;;;;49.60;21.90;;;;;;;;;;4986522;28;20527;-81
2022/12/21 08:23:12;;;;;;;45.00;21.57;;;;;;;;;;5001921;28;20442;-73
2022/12/21 08:25:47;;;;;;;58.13;24.57;;;;;;;;;;4992599;28;20897;-79
2022/12/21 08:28:15;;;;;;;53.57;24.27;;;;;;;;;;4988464;28;20440;-76
2022/12/21 08:30:42;;;;;;;43.57;19.63;;;;;;;;;;4979930;28;20449;-69
2022/12/21 08:33:09;;;;;;;56.83;23.00;;;;;;;;;;4987335;28;20471;-70
2022/12/21 08:35:37;;;;;;;53.70;23.53;;;;;;;;;;4991290;28;20474;-68
2022/12/21 08:38:04;;;;;;;54.90;22.90;;;;;;;;;;4987433;28;20440;-71
2022/12/21 08:40:31;;;;;;;55.83;23.90;;;;;;;;;;4989410;28;20565;-69
2022/12/21 08:42:58;;;;;;;55.17;23.23;;;;;;;;;;4992350;28;20475;-67
2022/12/21 08:45:25;;;;;;;53.93;22.10;;;;;;;;;;4991123;28;20502;-72
2022/12/21 08:47:53;;;;;;;46.93;21.73;;;;;;;;;;4995006;28;20532;-70
2022/12/21 08:50:21;;;;;;;58.80;25.60;;;;;;;;;;4971990;28;20440;-68
2022/12/21 08:52:48;;;;;;;50.30;24.17;;;;;;;;;;4998505;28;20462;-71
2022/12/21 08:55:15;;;;;;;52.30;23.57;;;;;;;;;;5006199;28;20435;-72
2022/12/21 08:57:42;;;;;;;48.43;23.63;;;;;;;;;;4996360;28;20429;-71
2022/12/21 09:00:09;;;;;;;50.90;20.00;;;;;;;;;;5009729;28;20470;-72
2022/12/21 09:02:37;;;;;;;52.77;23.37;;;;;;;;;;5015289;28;20439;-70
2022/12/21 09:05:05;;;;;;;47.10;21.30;;;;;;;;;;5007068;28;20431;-71
2022/12/21 09:07:32;;;;;;;47.60;23.00;;;;;;;;;;4991581;28;20962;-68
2022/12/21 09:09:58;;;;;;;52.07;23.30;;;;;;;;;;4990731;28;20435;-68
2022/12/21 09:12:26;;;;;;;46.97;20.60;;;;;;;;;;5005509;28;20439;-69
2022/12/21 09:14:52;;;;;;;51.33;24.47;;;;;;;;;;4990302;28;20435;-70
2022/12/21 09:17:19;;;;;;;53.50;23.57;;;;;;;;;;4991195;28;21013;-68
2022/12/21 09:19:55;;;;;;;49.03;23.07;;;;;;;;;;4975549;28;20484;-69
2022/12/21 09:22:23;;;;;;;38.53;17.33;;;;;;;;;;5006530;28;20538;-70
2022/12/21 09:24:50;;;;;;;44.20;22.03;;;;;;;;;;5007123;28;20461;-70
2022/12/21 09:27:17;;;;;;;47.23;21.10;;;;;;;;;;4991169;28;20534;-73
2022/12/21 09:29:45;;;;;;;42.17;19.40;;;;;;;;;;5007434;28;21151;-69
2022/12/21 09:32:12;;;;;;;28.97;14.87;;;;;;;;;;4990742;28;20779;-70
2022/12/21 09:34:39;;;;;;;50.00;21.53;;;;;;;;;;5012476;28;20794;-67
2022/12/21 09:37:06;;;;;;;44.63;20.50;;;;;;;;;;5006846;28;20438;-69
2022/12/21 09:39:51;;;;;;;48.50;22.57;;;;;;;;;;4975987;28;21103;-68
2022/12/21 09:42:27;;;;;;;45.50;21.10;;;;;;;;;;5007044;28;20441;-68
2022/12/21 09:45:02;;;;;;;43.90;19.23;;;;;;;;;;5006907;28;20446;-69
2022/12/21 09:47:34;;;;;;;47.20;20.37;;;;;;;;;;4996603;28;20450;-69
2022/12/21 09:50:01;;;;;;;47.43;21.77;;;;;;;;;;4988546;28;20526;-69
2022/12/21 09:52:36;;;;;;;34.53;15.27;;;;;;;;;;5008245;28;20463;-68
2022/12/21 09:55:16;;;;;;;36.83;17.17;;;;;;;;;;4990698;28;20439;-68
2022/12/21 09:57:43;;;;;;;42.70;19.07;;;;;;;;;;4988510;28;20431;-69
2022/12/21 10:00:13;;;;;;;47.17;19.50;;;;;;;;;;4987704;28;20477;-72
2022/12/21 10:02:43;;;;;;;43.17;21.83;;;;;;;;;;4992664;28;20533;-71
2022/12/21 10:05:19;;;;;;;45.43;20.10;;;;;;;;;;4992549;28;20431;-72
2022/12/21 10:07:47;;;;;;;48.50;22.40;;;;;;;;;;5009724;28;20464;-72
2022/12/21 10:10:23;;;;;;;48.53;21.80;;;;;;;;;;5009822;28;20545;-72
2022/12/21 10:13:00;;;;;;;50.40;21.40;;;;;;;;;;4992209;28;20922;-72
2022/12/21 10:15:30;;;;;;;44.87;19.23;;;;;;;;;;4992191;28;20427;-72
2022/12/21 10:18:07;;;;;;;47.57;22.43;;;;;;;;;;5010067;28;20528;-72
2022/12/21 10:20:37;;;;;;;45.07;20.47;;;;;;;;;;4992124;28;20476;-72
2022/12/21 10:23:05;;;;;;;38.83;18.10;;;;;;;;;;5009409;28;21270;-72
2022/12/21 10:25:37;;;;;;;45.67;21.73;;;;;;;;;;4975824;28;20443;-72
2022/12/21 10:28:12;;;;;;;42.30;21.67;;;;;;;;;;4992155;28;20438;-72
2022/12/21 10:30:39;;;;;;;45.17;22.03;;;;;;;;;;4976207;28;20458;-72
2022/12/21 10:33:07;;;;;;;44.00;20.80;;;;;;;;;;4976137;28;20446;-72
2022/12/21 10:35:35;;;;;;;47.83;22.50;;;;;;;;;;5009613;28;20433;-72
2022/12/21 10:38:02;;;;;;;45.03;21.20;;;;;;;;;;4992037;28;20447;-72
2022/12/21 10:40:29;;;;;;;43.57;21.30;;;;;;;;;;4991902;28;20458;-72
2022/12/21 10:42:56;;;;;;;41.77;19.73;;;;;;;;;;4975902;28;20443;-72
2022/12/21 10:45:23;;;;;;;44.23;19.53;;;;;;;;;;4991890;28;20443;-72
2022/12/21 10:47:52;;;;;;;41.07;20.40;;;;;;;;;;4992857;28;20947;-73
2022/12/21 10:50:24;;;;;;;35.10;18.10;;;;;;;;;;4992020;28;20435;-72
2022/12/21 10:52:51;;;;;;;43.13;20.57;;;;;;;;;;4997403;28;20466;-73
2022/12/21 10:55:18;;;;;;;43.07;20.90;;;;;;;;;;5029172;28;20439;-72
2022/12/21 10:57:45;;;;;;;44.43;19.20;;;;;;;;;;5028639;28;20526;-72
2022/12/21 11:00:24;;;;;;;41.77;20.00;;;;;;;;;;5011666;28;20564;-72
2022/12/21 11:02:52;;;;;;;44.93;20.97;;;;;;;;;;5029317;28;20446;-72
2022/12/21 11:05:37;;;;;;;40.97;20.17;;;;;;;;;;4997598;28;20477;-72
2022/12/21 11:08:12;;;;;;;42.10;20.43;;;;;;;;;;5011250;28;20411;-71
2022/12/21 11:10:40;;;;;;;36.57;17.17;;;;;;;;;;5029035;28;20436;-72
2022/12/21 11:13:24;;;;;;;45.67;19.80;;;;;;;;;;5013526;28;20481;-72
2022/12/21 11:15:53;;;;;;;41.17;19.93;;;;;;;;;;5011455;28;20428;-72
2022/12/21 11:18:33;;;;;;;39.70;20.83;;;;;;;;;;5028789;28;20434;-72
2022/12/21 11:21:00;;;;;;;37.73;19.27;;;;;;;;;;4995381;28;20294;-72
2022/12/21 11:23:27;;;;;;;34.80;18.37;;;;;;;;;;5011118;28;20437;-72
2022/12/21 11:25:54;;;;;;;34.87;15.93;;;;;;;;;;5010832;28;20485;-72
2022/12/21 11:28:21;;;;;;;40.83;18.03;;;;;;;;;;5028779;28;20937;-72
2022/12/21 11:30:51;;;;;;;39.10;19.17;;;;;;;;;;5011010;28;20938;-72
2022/12/21 11:33:18;;;;;;;45.73;18.20;;;;;;;;;;5011437;28;20802;-72
2022/12/21 11:36:04;;;;;;;38.33;18.37;;;;;;;;;;5029586;28;20551;-72
2022/12/21 11:38:34;;;;;;;41.07;18.77;;;;;;;;;;5014875;28;20444;-72
2022/12/21 11:41:01;;;;;;;32.70;15.50;;;;;;;;;;5032400;28;20461;-72
2022/12/21 11:43:28;;;;;;;42.47;19.60;;;;;;;;;;5031912;28;20462;-72
2022/12/21 11:46:06;;;;;;;33.73;16.63;;;;;;;;;;5031473;28;20446;-72
2022/12/21 11:49:02;;;;;;;41.17;19.83;;;;;;;;;;5017810;28;20438;-72
2022/12/21 11:51:32;;;;;;;47.10;21.33;;;;;;;;;;4998093;28;20444;-72
2022/12/21 11:54:12;;;;;;;43.87;19.30;;;;;;;;;;5000124;28;21013;-72
2022/12/21 11:56:42;;;;;;;42.27;19.53;;;;;;;;;;5012620;28;20454;-72
2022/12/21 11:59:27;;;;;;;39.23;18.53;;;;;;;;;;5011966;28;20431;-72
2022/12/21 12:02:14;;;;;;;51.60;20.50;;;;;;;;;;5012375;28;20914;-72
2022/12/21 12:04:53;;;;;;;35.77;15.20;;;;;;;;;;5012263;28;20525;-72
2022/12/21 12:07:39;;;;;;;45.73;20.47;;;;;;;;;;4994745;28;20436;-72
2022/12/21 12:10:20;;;;;;;42.93;20.23;;;;;;;;;;5011926;28;20482;-72
2022/12/21 12:12:47;;;;;;;41.03;18.13;;;;;;;;;;5011359;28;20431;-72
2022/12/21 12:15:21;;;;;;;38.30;16.63;;;;;;;;;;4994928;28;20522;-72
2022/12/21 12:17:47;;;;;;;46.50;20.43;;;;;;;;;;4994525;28;20481;-72
2022/12/21 12:20:27;;;;;;;40.93;18.83;;;;;;;;;;5011782;28;20530;-72
2022/12/21 12:22:53;;;;;;;42.27;18.53;;;;;;;;;;5011890;28;20438;-72
2022/12/21 12:25:21;;;;;;;38.43;18.03;;;;;;;;;;5011668;28;20271;-72
2022/12/21 12:28:00;;;;;;;40.00;18.70;;;;;;;;;;5011241;28;20440;-72
2022/12/21 12:30:32;;;;;;;38.93;18.13;;;;;;;;;;5011413;28;20489;-72
2022/12/21 12:33:00;;;;;;;42.23;18.90;;;;;;;;;;4978133;28;20446;-72
2022/12/21 12:35:46;;;;;;;40.53;17.60;;;;;;;;;;4993955;28;20510;-72
2022/12/21 12:38:25;;;;;;;39.90;17.27;;;;;;;;;;5011550;28;20431;-72
2022/12/21 12:41:10;;;;;;;38.47;17.23;;;;;;;;;;4994509;28;20489;-72
2022/12/21 12:43:47;;;;;;;36.70;18.40;;;;;;;;;;5011477;28;20954;-72
2022/12/21 12:46:23;;;;;;;43.67;19.63;;;;;;;;;;4994445;28;20446;-72
2022/12/21 12:48:50;;;;;;;43.57;21.53;;;;;;;;;;5011489;28;20188;-72
2022/12/21 12:51:25;;;;;;;41.67;20.47;;;;;;;;;;5011588;28;20454;-72
2022/12/21 12:53:57;;;;;;;41.93;19.77;;;;;;;;;;5007657;28;20445;-72
2022/12/21 12:56:30;;;;;;;40.53;19.60;;;;;;;;;;5030943;28;20222;-71
2022/12/21 12:59:09;;;;;;;47.70;20.10;;;;;;;;;;5013421;28;20913;-72
2022/12/21 13:01:56;;;;;;;37.87;19.03;;;;;;;;;;5030855;28;20965;-72
2022/12/21 13:04:32;;;;;;;42.80;19.23;;;;;;;;;;5031053;28;20472;-72
2022/12/21 13:07:18;;;;;;;42.27;19.10;;;;;;;;;;5030758;28;20952;-72
2022/12/21 13:10:09;;;;;;;37.90;16.97;;;;;;;;;;5013177;28;21288;-71
2022/12/21 13:12:45;;;;;;;35.00;14.00;;;;;;;;;;4994424;28;20442;-71
2022/12/21 13:15:19;;;;;;;36.80;16.10;;;;;;;;;;5016408;28;20443;-72
2022/12/21 13:17:52;;;;;;;39.93;19.33;;;;;;;;;;5011874;28;20439;-72
2022/12/21 13:20:20;;;;;;;43.70;18.13;;;;;;;;;;4994275;28;20465;-72
2022/12/21 13:22:48;;;;;;;39.90;18.97;;;;;;;;;;4995305;28;20438;-72
2022/12/21 13:25:33;;;;;;;42.30;18.37;;;;;;;;;;4978528;28;20432;-72
2022/12/21 13:28:04;;;;;;;42.60;19.77;;;;;;;;;;5008254;28;20450;-72
2022/12/21 13:30:31;;;;;;;44.87;18.90;;;;;;;;;;4977783;28;20439;-71
2022/12/21 13:33:07;;;;;;;50.73;21.67;;;;;;;;;;4995460;28;20433;-72
2022/12/21 13:35:54;;;;;;;47.13;20.67;;;;;;;;;;4997795;28;20435;-72
2022/12/21 13:38:21;;;;;;;49.97;22.63;;;;;;;;;;5011577;28;20439;-71
2022/12/21 13:41:02;;;;;;;49.23;19.73;;;;;;;;;;4994826;28;20465;-72
2022/12/21 13:43:34;;;;;;;48.37;21.23;;;;;;;;;;4981195;28;20945;-72
2022/12/21 13:46:21;;;;;;;49.67;21.63;;;;;;;;;;5011725;28;20438;-72
2022/12/21 13:48:49;;;;;;;46.83;18.97;;;;;;;;;;5012058;28;20431;-72
2022/12/21 13:51:22;;;;;;;49.80;21.33;;;;;;;;;;4974784;28;20457;-72
2022/12/21 13:54:12;;;;;;;44.93;20.40;;;;;;;;;;5011121;28;20471;-72
2022/12/21 13:56:39;;;;;;;50.57;22.37;;;;;;;;;;5005334;28;20455;-72
2022/12/21 13:59:18;;;;;;;47.80;20.37;;;;;;;;;;5010961;28;20442;-72
2022/12/21 14:02:00;;;;;;;46.73;19.77;;;;;;;;;;5010337;28;20482;-72
2022/12/21 14:04:31;;;;;;;46.67;21.63;;;;;;;;;;5010765;28;20505;-73
2022/12/21 14:07:16;;;;;;;43.07;19.10;;;;;;;;;;4993812;28;20435;-72
2022/12/21 14:10:05;;;;;;;49.63;21.43;;;;;;;;;;4993932;28;20458;-71
2022/12/21 14:13:11;;;;;;;44.10;19.73;;;;;;;;;;4986999;28;20539;-71
2022/12/21 14:15:38;;;;;;;58.80;27.50;;;;;;;;;;5011775;28;20431;-71
2022/12/21 14:18:10;;;;;;;48.70;21.17;;;;;;;;;;5011390;28;20446;-71
2022/12/21 14:20:37;;;;;;;46.93;20.83;;;;;;;;;;4994000;28;20497;-71
2022/12/21 14:23:14;;;;;;;44.83;20.80;;;;;;;;;;4993445;28;20485;-70
2022/12/21 14:25:47;;;;;;;48.27;21.47;;;;;;;;;;4972211;28;20494;-73
2022/12/21 14:28:20;;;;;;;48.77;22.57;;;;;;;;;;4983415;28;20180;-69
2022/12/21 14:31:04;;;;;;;51.63;21.47;;;;;;;;;;5008086;28;20461;-69
2022/12/21 14:33:46;;;;;;;46.00;20.33;;;;;;;;;;4988867;28;20466;-71
2022/12/21 14:36:34;;;;;;;45.47;19.80;;;;;;;;;;4982555;28;20469;-71
2022/12/21 14:39:08;;;;;;;44.80;19.23;;;;;;;;;;4990589;28;20447;-70
2022/12/21 14:41:42;;;;;;;44.50;19.80;;;;;;;;;;4990991;28;21104;-70
2022/12/21 14:44:30;;;;;;;47.23;20.20;;;;;;;;;;5007744;28;20451;-70
2022/12/21 14:47:03;;;;;;;47.37;20.40;;;;;;;;;;4987274;28;20450;-70
2022/12/21 14:49:51;;;;;;;49.07;20.30;;;;;;;;;;4998997;28;20526;-70